sensor_id;sensor_type;location;lat;lon;timestamp;P1;durP1;ratioP1;P2;durP2;ratioP2
3979;SDS011;2004;52.452;13.120;2023-07-09T00:01:31;6.27;;;4.03;;
3979;SDS011;2004;52.452;13.120;2023-07-09T00:09:21;5.13;;;3.17;;
3979;SDS011;2004;52.452;13.120;2023-07-09T00:17:23;7.60;;;4.30;;
3979;SDS011;2004;52.452;13.120;2023-07-09T00:25:20;5.97;;;3.87;;
3979;SDS011;2004;52.452;13.120;2023-07-09T00:33:15;4.10;;;3.30;;
3979;SDS011;2004;52.452;13.120;2023-07-09T00:41:10;5.93;;;3.73;;
3979;SDS011;2004;52.452;13.120;2023-07-09T00:49:07;5.50;;;3.63;;
3979;SDS011;2004;52.452;13.120;2023-07-09T00:57:03;4.97;;;3.27;;
3979;SDS011;2004;52.452;13.120;2023-07-09T01:04:59;8.10;;;3.60;;
3979;SDS011;2004;52.452;13.120;2023-07-09T01:12:52;3.93;;;3.40;;
3979;SDS011;2004;52.452;13.120;2023-07-09T01:20:43;6.17;;;3.80;;
3979;SDS011;2004;52.452;13.120;2023-07-09T01:28:36;5.50;;;3.30;;
3979;SDS011;2004;52.452;13.120;2023-07-09T01:36:27;3.37;;;2.90;;
3979;SDS011;2004;52.452;13.120;2023-07-09T01:44:18;5.13;;;3.03;;
3979;SDS011;2004;52.452;13.120;2023-07-09T01:52:09;3.00;;;2.40;;
3979;SDS011;2004;52.452;13.120;2023-07-09T02:00:00;6.27;;;3.60;;
3979;SDS011;2004;52.452;13.120;2023-07-09T02:07:56;3.70;;;3.00;;
3979;SDS011;2004;52.452;13.120;2023-07-09T02:15:46;5.37;;;3.93;;
3979;SDS011;2004;52.452;13.120;2023-07-09T02:23:37;4.27;;;3.17;;
3979;SDS011;2004;52.452;13.120;2023-07-09T02:31:28;4.20;;;3.27;;
3979;SDS011;2004;52.452;13.120;2023-07-09T02:39:20;5.80;;;3.60;;
3979;SDS011;2004;52.452;13.120;2023-07-09T02:47:11;7.10;;;3.90;;
3979;SDS011;2004;52.452;13.120;2023-07-09T02:55:02;4.90;;;3.50;;
3979;SDS011;2004;52.452;13.120;2023-07-09T03:02:54;4.23;;;3.77;;
3979;SDS011;2004;52.452;13.120;2023-07-09T03:10:46;4.83;;;3.70;;
3979;SDS011;2004;52.452;13.120;2023-07-09T03:18:36;5.03;;;3.87;;
3979;SDS011;2004;52.452;13.120;2023-07-09T03:26:27;3.43;;;3.13;;
3979;SDS011;2004;52.452;13.120;2023-07-09T03:34:18;8.27;;;4.23;;
3979;SDS011;2004;52.452;13.120;2023-07-09T03:42:08;5.23;;;3.83;;
3979;SDS011;2004;52.452;13.120;2023-07-09T03:49:59;6.90;;;3.80;;
3979;SDS011;2004;52.452;13.120;2023-07-09T03:57:50;13.00;;;5.20;;
3979;SDS011;2004;52.452;13.120;2023-07-09T04:05:41;6.60;;;4.17;;
3979;SDS011;2004;52.452;13.120;2023-07-09T04:13:32;5.40;;;4.00;;
3979;SDS011;2004;52.452;13.120;2023-07-09T04:21:22;5.93;;;5.03;;
3979;SDS011;2004;52.452;13.120;2023-07-09T04:29:13;8.23;;;4.57;;
3979;SDS011;2004;52.452;13.120;2023-07-09T04:37:05;5.20;;;4.07;;
3979;SDS011;2004;52.452;13.120;2023-07-09T04:44:59;6.67;;;4.40;;
3979;SDS011;2004;52.452;13.120;2023-07-09T04:52:49;5.73;;;4.87;;
3979;SDS011;2004;52.452;13.120;2023-07-09T05:00:41;8.13;;;3.90;;
3979;SDS011;2004;52.452;13.120;2023-07-09T05:08:32;6.00;;;5.13;;
3979;SDS011;2004;52.452;13.120;2023-07-09T05:16:23;6.03;;;4.70;;
3979;SDS011;2004;52.452;13.120;2023-07-09T05:24:15;4.33;;;4.00;;
3979;SDS011;2004;52.452;13.120;2023-07-09T05:32:05;4.70;;;4.20;;
3979;SDS011;2004;52.452;13.120;2023-07-09T05:39:56;5.10;;;4.60;;
3979;SDS011;2004;52.452;13.120;2023-07-09T05:47:47;6.30;;;3.83;;
3979;SDS011;2004;52.452;13.120;2023-07-09T05:55:37;5.17;;;4.00;;
3979;SDS011;2004;52.452;13.120;2023-07-09T06:03:28;4.27;;;3.50;;
3979;SDS011;2004;52.452;13.120;2023-07-09T06:11:19;5.60;;;3.77;;
3979;SDS011;2004;52.452;13.120;2023-07-09T06:19:10;4.57;;;3.87;;
3979;SDS011;2004;52.452;13.120;2023-07-09T06:27:01;3.77;;;3.20;;
3979;SDS011;2004;52.452;13.120;2023-07-09T06:34:51;6.20;;;3.60;;
3979;SDS011;2004;52.452;13.120;2023-07-09T06:42:43;5.73;;;4.17;;
3979;SDS011;2004;52.452;13.120;2023-07-09T06:50:36;8.63;;;3.40;;
3979;SDS011;2004;52.452;13.120;2023-07-09T06:58:27;7.90;;;4.40;;
3979;SDS011;2004;52.452;13.120;2023-07-09T07:06:21;7.90;;;3.87;;
3979;SDS011;2004;52.452;13.120;2023-07-09T07:14:12;3.97;;;3.63;;
3979;SDS011;2004;52.452;13.120;2023-07-09T07:22:02;4.30;;;3.80;;
3979;SDS011;2004;52.452;13.120;2023-07-09T07:29:53;11.20;;;3.90;;
3979;SDS011;2004;52.452;13.120;2023-07-09T07:37:44;10.53;;;3.70;;
3979;SDS011;2004;52.452;13.120;2023-07-09T07:45:34;5.37;;;3.50;;
3979;SDS011;2004;52.452;13.120;2023-07-09T07:53:25;9.80;;;4.40;;
3979;SDS011;2004;52.452;13.120;2023-07-09T08:01:15;10.93;;;4.30;;
3979;SDS011;2004;52.452;13.120;2023-07-09T08:09:06;10.73;;;4.20;;
3979;SDS011;2004;52.452;13.120;2023-07-09T08:16:56;4.53;;;3.87;;
3979;SDS011;2004;52.452;13.120;2023-07-09T08:24:47;5.80;;;3.80;;
3979;SDS011;2004;52.452;13.120;2023-07-09T08:32:38;8.00;;;4.20;;
3979;SDS011;2004;52.452;13.120;2023-07-09T08:40:28;5.03;;;3.47;;
3979;SDS011;2004;52.452;13.120;2023-07-09T08:48:30;3.90;;;3.60;;
3979;SDS011;2004;52.452;13.120;2023-07-09T08:56:22;5.73;;;3.27;;
3979;SDS011;2004;52.452;13.120;2023-07-09T09:04:18;4.87;;;3.60;;
3979;SDS011;2004;52.452;13.120;2023-07-09T09:12:21;4.07;;;3.67;;
3979;SDS011;2004;52.452;13.120;2023-07-09T09:20:17;7.53;;;3.50;;
3979;SDS011;2004;52.452;13.120;2023-07-09T09:28:13;3.70;;;3.27;;
3979;SDS011;2004;52.452;13.120;2023-07-09T09:36:11;4.13;;;3.73;;
3979;SDS011;2004;52.452;13.120;2023-07-09T09:44:15;4.47;;;3.90;;
3979;SDS011;2004;52.452;13.120;2023-07-09T09:52:15;5.23;;;4.13;;
3979;SDS011;2004;52.452;13.120;2023-07-09T10:00:13;4.40;;;3.50;;
3979;SDS011;2004;52.452;13.120;2023-07-09T10:08:11;7.87;;;4.20;;
3979;SDS011;2004;52.452;13.120;2023-07-09T10:16:27;12.80;;;4.67;;
3979;SDS011;2004;52.452;13.120;2023-07-09T10:24:32;4.07;;;3.50;;
3979;SDS011;2004;52.452;13.120;2023-07-09T10:40:48;7.07;;;4.60;;
3979;SDS011;2004;52.452;13.120;2023-07-09T10:48:46;4.27;;;3.87;;
3979;SDS011;2004;52.452;13.120;2023-07-09T10:56:39;9.43;;;4.37;;
3979;SDS011;2004;52.452;13.120;2023-07-09T11:04:37;4.53;;;4.23;;
3979;SDS011;2004;52.452;13.120;2023-07-09T11:12:36;5.13;;;3.63;;
3979;SDS011;2004;52.452;13.120;2023-07-09T11:20:35;6.80;;;3.80;;
3979;SDS011;2004;52.452;13.120;2023-07-09T11:28:35;6.40;;;4.37;;
3979;SDS011;2004;52.452;13.120;2023-07-09T11:36:29;5.53;;;3.80;;
3979;SDS011;2004;52.452;13.120;2023-07-09T11:44:21;5.73;;;4.20;;
3979;SDS011;2004;52.452;13.120;2023-07-09T11:52:43;5.20;;;3.20;;
3979;SDS011;2004;52.452;13.120;2023-07-09T12:00:43;4.00;;;3.70;;
3979;SDS011;2004;52.452;13.120;2023-07-09T12:08:45;11.33;;;3.87;;
3979;SDS011;2004;52.452;13.120;2023-07-09T12:16:44;4.40;;;4.00;;
3979;SDS011;2004;52.452;13.120;2023-07-09T12:24:37;9.73;;;4.17;;
3979;SDS011;2004;52.452;13.120;2023-07-09T12:32:31;4.43;;;4.03;;
3979;SDS011;2004;52.452;13.120;2023-07-09T12:40:22;6.13;;;4.60;;
3979;SDS011;2004;52.452;13.120;2023-07-09T12:48:17;3.83;;;3.43;;
3979;SDS011;2004;52.452;13.120;2023-07-09T12:56:12;8.27;;;3.97;;
3979;SDS011;2004;52.452;13.120;2023-07-09T13:04:08;5.17;;;3.83;;
3979;SDS011;2004;52.452;13.120;2023-07-09T13:12:03;3.83;;;3.53;;
3979;SDS011;2004;52.452;13.120;2023-07-09T13:19:54;4.83;;;4.30;;
3979;SDS011;2004;52.452;13.120;2023-07-09T13:27:46;5.10;;;4.60;;
3979;SDS011;2004;52.452;13.120;2023-07-09T13:35:37;10.40;;;4.60;;
3979;SDS011;2004;52.452;13.120;2023-07-09T13:51:24;9.83;;;4.67;;
3979;SDS011;2004;52.452;13.120;2023-07-09T13:59:16;8.60;;;4.33;;
3979;SDS011;2004;52.452;13.120;2023-07-09T14:07:15;5.30;;;4.43;;
3979;SDS011;2004;52.452;13.120;2023-07-09T14:15:17;6.50;;;4.10;;
3979;SDS011;2004;52.452;13.120;2023-07-09T14:23:13;6.30;;;4.30;;
3979;SDS011;2004;52.452;13.120;2023-07-09T14:31:21;6.27;;;5.10;;
3979;SDS011;2004;52.452;13.120;2023-07-09T14:39:16;8.83;;;3.97;;
3979;SDS011;2004;52.452;13.120;2023-07-09T14:47:10;5.70;;;4.17;;
3979;SDS011;2004;52.452;13.120;2023-07-09T14:55:13;4.67;;;3.90;;
3979;SDS011;2004;52.452;13.120;2023-07-09T15:03:07;5.83;;;4.27;;
3979;SDS011;2004;52.452;13.120;2023-07-09T15:11:00;8.17;;;5.87;;
3979;SDS011;2004;52.452;13.120;2023-07-09T15:18:51;4.60;;;4.20;;
3979;SDS011;2004;52.452;13.120;2023-07-09T15:26:41;5.77;;;4.63;;
3979;SDS011;2004;52.452;13.120;2023-07-09T15:34:32;5.37;;;4.87;;
3979;SDS011;2004;52.452;13.120;2023-07-09T15:42:23;6.47;;;4.60;;
3979;SDS011;2004;52.452;13.120;2023-07-09T15:50:14;7.20;;;4.40;;
3979;SDS011;2004;52.452;13.120;2023-07-09T15:58:16;6.73;;;4.60;;
3979;SDS011;2004;52.452;13.120;2023-07-09T16:06:16;5.83;;;4.20;;
3979;SDS011;2004;52.452;13.120;2023-07-09T16:14:14;11.63;;;4.50;;
3979;SDS011;2004;52.452;13.120;2023-07-09T16:22:20;7.37;;;4.97;;
3979;SDS011;2004;52.452;13.120;2023-07-09T16:30:13;8.27;;;4.90;;
3979;SDS011;2004;52.452;13.120;2023-07-09T16:38:10;7.77;;;4.80;;
3979;SDS011;2004;52.452;13.120;2023-07-09T16:46:01;8.93;;;4.87;;
3979;SDS011;2004;52.452;13.120;2023-07-09T16:54:16;6.10;;;5.17;;
3979;SDS011;2004;52.452;13.120;2023-07-09T17:02:18;5.90;;;4.77;;
3979;SDS011;2004;52.452;13.120;2023-07-09T17:10:14;10.70;;;4.80;;
3979;SDS011;2004;52.452;13.120;2023-07-09T17:18:11;12.23;;;5.17;;
3979;SDS011;2004;52.452;13.120;2023-07-09T17:26:08;6.80;;;5.17;;
3979;SDS011;2004;52.452;13.120;2023-07-09T17:33:58;7.53;;;4.80;;
3979;SDS011;2004;52.452;13.120;2023-07-09T17:41:49;11.27;;;6.27;;
3979;SDS011;2004;52.452;13.120;2023-07-09T17:49:40;6.27;;;5.73;;
3979;SDS011;2004;52.452;13.120;2023-07-09T17:57:32;17.70;;;5.70;;
3979;SDS011;2004;52.452;13.120;2023-07-09T18:05:25;7.00;;;4.97;;
3979;SDS011;2004;52.452;13.120;2023-07-09T18:13:21;7.93;;;5.50;;
3979;SDS011;2004;52.452;13.120;2023-07-09T18:21:14;9.20;;;4.93;;
3979;SDS011;2004;52.452;13.120;2023-07-09T18:29:04;5.37;;;4.83;;
3979;SDS011;2004;52.452;13.120;2023-07-09T18:37:00;7.03;;;5.30;;
3979;SDS011;2004;52.452;13.120;2023-07-09T18:44:52;6.70;;;5.40;;
3979;SDS011;2004;52.452;13.120;2023-07-09T18:52:43;6.50;;;5.53;;
3979;SDS011;2004;52.452;13.120;2023-07-09T19:00:34;6.50;;;5.00;;
3979;SDS011;2004;52.452;13.120;2023-07-09T19:08:26;5.70;;;5.10;;
3979;SDS011;2004;52.452;13.120;2023-07-09T19:16:26;7.80;;;5.10;;
3979;SDS011;2004;52.452;13.120;2023-07-09T19:24:28;8.60;;;5.83;;
3979;SDS011;2004;52.452;13.120;2023-07-09T19:32:23;9.70;;;5.47;;
3979;SDS011;2004;52.452;13.120;2023-07-09T19:40:19;10.00;;;5.57;;
3979;SDS011;2004;52.452;13.120;2023-07-09T19:48:14;6.87;;;5.10;;
3979;SDS011;2004;52.452;13.120;2023-07-09T19:56:12;9.77;;;4.70;;
3979;SDS011;2004;52.452;13.120;2023-07-09T20:12:30;6.63;;;4.87;;
3979;SDS011;2004;52.452;13.120;2023-07-09T20:20:21;9.13;;;4.60;;
3979;SDS011;2004;52.452;13.120;2023-07-09T20:28:21;9.83;;;5.13;;
3979;SDS011;2004;52.452;13.120;2023-07-09T20:36:31;9.03;;;4.97;;
3979;SDS011;2004;52.452;13.120;2023-07-09T20:44:41;12.20;;;5.63;;
3979;SDS011;2004;52.452;13.120;2023-07-09T20:52:52;11.23;;;5.87;;
3979;SDS011;2004;52.452;13.120;2023-07-09T21:01:01;6.23;;;5.60;;
3979;SDS011;2004;52.452;13.120;2023-07-09T21:09:23;10.13;;;4.80;;
3979;SDS011;2004;52.452;13.120;2023-07-09T21:17:39;6.90;;;5.17;;
3979;SDS011;2004;52.452;13.120;2023-07-09T23:20:01;9.73;;;6.17;;
3979;SDS011;2004;52.452;13.120;2023-07-09T23:27:55;6.47;;;5.60;;
3979;SDS011;2004;52.452;13.120;2023-07-09T23:35:46;8.27;;;6.20;;
3979;SDS011;2004;52.452;13.120;2023-07-09T23:43:38;9.47;;;6.40;;
3979;SDS011;2004;52.452;13.120;2023-07-09T23:51:31;10.73;;;5.63;;
3979;SDS011;2004;52.452;13.120;2023-07-09T23:59:23;7.43;;;5.40;;
